• Join FlightAware (Why Join?)
  • Login
  • US Flag 
02:40AM EDT


 

Airport Tracker/Info


-or-


 

Live Flight TrackerFlight Track Log ✈ N711MD ✈ 07-Jul-2013 ✈ KROC - KBOS

Flight Track Log - Related Links

Times and Time Zones

All times are in EDT time to prevent confusion due to time zone crossing. See the N711MD flight status page for this flight to view local times or setup timezone preferences in your user account.

Time Position Orientation Groundspeed Altitude Reporting Facility
EDT Latitude Longitude Course Direction KTS MPH feet Rate Location/Type
09:35PM 43.1222 -77.6847 353° North 125 144 1,200  Level Cleveland Center
09:37PM 43.1639 -77.6914 342° North 227 261 4,500 1,980 Climbing Cleveland Center
09:38PM 43.1881 -77.5733 74° East 214 246 7,600 2,160 Climbing Cleveland Center
09:39PM 43.1650 -77.4864 110° East 214 246 9,700 2,160 Climbing Cleveland Center
09:40PM 43.1417 -77.3992 110° East 224 258 12,000 2,220 Climbing Cleveland Center
09:41PM 43.1267 -77.3117 103° East 230 265 14,200 2,100 Climbing Cleveland Center
09:42PM 43.1075 -77.2247 107° East 230 265 16,200 1,980 Climbing Cleveland Center
09:43PM 43.0883 -77.1375 107° East 235 270 18,200 1,800 Climbing Cleveland Center
09:44PM 43.0711 -77.0475 105° East 240 276 19,800 1,680 Climbing Cleveland Center
09:46PM 43.0367 -76.8892 107° East 240 276 22,800 1,740 Climbing Boston Center
09:47PM 43.0128 -76.8053 111° Southeast 245 282 24,500 1,560 Climbing Boston Center
09:48PM 42.9650 -76.7506 140° Southeast 224 258 26,000 1,140 Climbing Boston Center
09:49PM 42.9128 -76.6931 141° Southeast 232 267 26,800 480 Climbing Boston Center
09:50PM 42.8506 -76.6294 143° Southeast 257 296 27,000 60 Climbing Boston Center
09:51PM 42.7756 -76.5675 149° Southeast 296 341 27,000  Level Boston Center
09:52PM 42.6925 -76.5028 150° Southeast 323 372 27,000  Level Boston Center
09:53PM 42.6136 -76.4328 147° Southeast 337 388 27,000  Level Boston Center
09:54PM 42.5783 -76.3092 111° Southeast 331 381 27,000  Level Boston Center
09:55PM 42.5603 -76.1669 100° East 351 404 27,000  Level Boston Center
09:56PM 42.5544 -76.0256 93° East 356 410 27,000  Level Boston Center
09:57PM 42.5567 -75.8847 89° East 367 422 27,000  Level Boston Center
09:58PM 42.5617 -75.7158 88° East 373 429 27,000  Level Boston Center
09:59PM 42.5594 -75.5747 91° East 373 429 27,000  Level Boston Center
10:00PM 42.5569 -75.4281 91° East 378 435 27,000  Level Boston Center
10:01PM 42.5586 -75.2814 89° East 383 441 27,000  Level Boston Center
10:02PM 42.5603 -75.1350 89° East 383 441 27,000  Level Boston Center
10:03PM 42.5617 -74.9856 89° East 383 441 27,000  Level Boston Center
10:04PM 42.5628 -74.8361 89° East 383 441 27,000  Level Boston Center
10:05PM 42.5489 -74.6919 97° East 383 441 27,000  Level Boston Center
10:06PM 42.5314 -74.5167 98° East 389 448 27,000  Level Boston Center
10:07PM 42.5192 -74.3839 97° East 389 448 27,000  Level Boston Center
10:08PM 42.5111 -74.2400 94° East 389 448 27,000  Level Boston Center
10:09PM 42.5175 -74.0964 86° East 384 442 27,000  Level Boston Center
10:10PM 42.5194 -73.9528 89° East 384 442 27,000  Level Boston Center
10:11PM 42.5214 -73.8092 89° East 379 436 27,000  Level Boston Center
10:12PM 42.5208 -73.6628 90° East 379 436 27,000  Level Boston Center
10:13PM 42.5244 -73.5161 88° East 384 442 27,000  Level Boston Center
10:14PM 42.5278 -73.3697 88° East 384 442 27,000 -60 Level Boston Center
10:15PM 42.5333 -73.1953 87° East 395 455 26,900 -600 Descending Boston Center
10:16PM 42.5364 -73.0458 88° East 400 460 25,800 -1,080 Descending Boston Center
10:17PM 42.5372 -72.8797 90° East 407 468 24,800 -960 Descending Boston Center
10:18PM 42.5439 -72.7361 86° East 412 474 23,900 -1,440 Descending Boston Center
10:19PM 42.5503 -72.5811 87° East 402 463 22,000 -2,040 Descending Boston Center
10:20PM 42.5464 -72.4261 92° East 402 463 19,900 -2,100 Descending Boston Center
10:21PM 42.5400 -72.2850 93° East 389 448 17,800 -2,100 Descending Boston Center
10:22PM 42.5314 -72.1442 95° East 378 435 15,700 -2,400 Descending Boston Center
10:23PM 42.5225 -72.0036 95° East 373 429 13,000 -2,220 Descending Boston Center
10:24PM 42.5158 -71.8739 94° East 364 419 11,300 -1,680 Descending Boston Center
10:25PM 42.5150 -71.7556 91° East 317 365 9,700 -1,200 Descending Boston Center
10:26PM 42.5164 -71.6486 89° East 294 338 9,000 -720 Descending Boston Center
10:27PM 42.5261 -71.5497 82° East 270 311 8,300 -1,260 Descending Boston Center
10:28PM 42.5333 -71.4333 85° East 304 350 6,500 -1,620 Descending KA90
10:29PM 42.5333 -71.3000 90° East 289 333 4,800 -1,260 Descending KA90
10:30PM 42.5500 -71.2167 75° East 279 321 4,000 -600 Descending KA90
10:31PM 42.5500 -71.1167 90° East 235 270 3,700 -480 Descending KA90
10:32PM 42.5500 -71.0167 90° East 227 261 3,000 -360 Descending KA90
10:33PM 42.5667 -70.9500 71° East 206 237 3,000  Level KA90
10:34PM 42.5333 -70.9167 144° Southeast 176 203 3,000 -480 Level KA90
10:35PM 42.4833 -70.9500 206° Southwest 161 185 2,100 -780 Descending KA90
10:36PM 42.4500 -70.9667 200° South 156 180 1,600 -720 Descending KA90
10:37PM 42.4167 -70.9833 200° South 150 173 800 -840 Descending KA90
10:39PM 42.3630 -71.0064 270° West  Level Estimated
10:46PM 42.3630 -71.0064 270° West  Level Estimated
10:47PM 42.3630 -71.0064 270° West  Level Estimated